sensor_id;sensor_type;location;lat;lon;timestamp;pressure;altitude;pressure_sealevel;temperature;humidity
70370;BME280;57790;51.356;-2.906;2022-11-25T00:02:45;100505.25;;;9.36;86.14
70370;BME280;57790;51.356;-2.906;2022-11-25T00:05:45;100500.78;;;9.37;85.65
70370;BME280;57790;51.356;-2.906;2022-11-25T00:08:47;100500.25;;;10.08;86.85
70370;BME280;57790;51.356;-2.906;2022-11-25T00:11:48;100507.22;;;9.34;85.70
70370;BME280;57790;51.356;-2.906;2022-11-25T00:14:48;100503.38;;;9.20;87.26
70370;BME280;57790;51.356;-2.906;2022-11-25T00:17:49;100515.78;;;9.20;87.54
70370;BME280;57790;51.356;-2.906;2022-11-25T00:20:49;100521.59;;;9.32;88.33
70370;BME280;57790;51.356;-2.906;2022-11-25T00:23:52;100517.81;;;9.34;88.38
70370;BME280;57790;51.356;-2.906;2022-11-25T00:26:52;100527.81;;;9.14;89.31
70370;BME280;57790;51.356;-2.906;2022-11-25T00:29:53;100534.41;;;9.10;90.19
70370;BME280;57790;51.356;-2.906;2022-11-25T00:32:53;100544.16;;;9.10;90.73
70370;BME280;57790;51.356;-2.906;2022-11-25T00:35:53;100544.75;;;9.38;91.13
70370;BME280;57790;51.356;-2.906;2022-11-25T00:38:56;100545.72;;;9.71;90.66
70370;BME280;57790;51.356;-2.906;2022-11-25T00:41:57;100550.94;;;9.46;89.84
70370;BME280;57790;51.356;-2.906;2022-11-25T00:45:16;100547.50;;;9.62;89.79
70370;BME280;57790;51.356;-2.906;2022-11-25T00:48:16;100557.88;;;9.47;90.34
70370;BME280;57790;51.356;-2.906;2022-11-25T00:51:16;100563.84;;;9.49;91.28
70370;BME280;57790;51.356;-2.906;2022-11-25T00:54:17;100566.19;;;9.61;91.67
70370;BME280;57790;51.356;-2.906;2022-11-25T00:57:20;100569.50;;;9.63;91.20
70370;BME280;57790;51.356;-2.906;2022-11-25T01:00:21;100572.47;;;9.60;91.14
70370;BME280;57790;51.356;-2.906;2022-11-25T01:03:21;100575.00;;;9.69;90.42
70370;BME280;57790;51.356;-2.906;2022-11-25T01:06:22;100579.09;;;9.64;90.99
70370;BME280;57790;51.356;-2.906;2022-11-25T01:09:23;100584.28;;;9.39;91.74
70370;BME280;57790;51.356;-2.906;2022-11-25T01:12:23;100586.38;;;9.62;91.64
70370;BME280;57790;51.356;-2.906;2022-11-25T01:15:23;100597.44;;;9.23;91.88
70370;BME280;57790;51.356;-2.906;2022-11-25T01:18:24;100592.59;;;9.44;91.93
70370;BME280;57790;51.356;-2.906;2022-11-25T01:21:27;100596.25;;;9.43;91.15
70370;BME280;57790;51.356;-2.906;2022-11-25T01:24:28;100602.69;;;9.41;90.59
70370;BME280;57790;51.356;-2.906;2022-11-25T01:27:28;100602.34;;;9.44;90.85
70370;BME280;57790;51.356;-2.906;2022-11-25T01:30:29;100606.16;;;9.41;91.23
70370;BME280;57790;51.356;-2.906;2022-11-25T01:33:30;100623.38;;;9.88;90.47
70370;BME280;57790;51.356;-2.906;2022-11-25T01:36:31;100627.75;;;9.37;91.77
70370;BME280;57790;51.356;-2.906;2022-11-25T01:39:32;100636.63;;;9.53;91.34
70370;BME280;57790;51.356;-2.906;2022-11-25T01:42:32;100624.84;;;9.48;90.84
70370;BME280;57790;51.356;-2.906;2022-11-25T01:45:35;100631.41;;;9.36;91.28
70370;BME280;57790;51.356;-2.906;2022-11-25T01:48:40;100639.41;;;9.44;91.64
70370;BME280;57790;51.356;-2.906;2022-11-25T01:51:50;100648.91;;;9.29;91.63
70370;BME280;57790;51.356;-2.906;2022-11-25T01:54:57;100663.72;;;9.47;91.84
70370;BME280;57790;51.356;-2.906;2022-11-25T01:58:07;100671.75;;;9.38;92.27
70370;BME280;57790;51.356;-2.906;2022-11-25T02:01:09;100684.31;;;9.36;91.58
70370;BME280;57790;51.356;-2.906;2022-11-25T02:04:11;100684.88;;;9.73;91.17
70370;BME280;57790;51.356;-2.906;2022-11-25T02:07:32;100686.69;;;9.47;90.59
70370;BME280;57790;51.356;-2.906;2022-11-25T02:10:34;100698.22;;;9.38;91.42
70370;BME280;57790;51.356;-2.906;2022-11-25T02:13:35;100699.69;;;9.58;90.41
70370;BME280;57790;51.356;-2.906;2022-11-25T02:16:35;100704.13;;;9.58;90.28
70370;BME280;57790;51.356;-2.906;2022-11-25T02:20:04;100717.56;;;9.12;91.84
70370;BME280;57790;51.356;-2.906;2022-11-25T02:24:00;100720.91;;;9.22;92.34
70370;BME280;57790;51.356;-2.906;2022-11-25T02:26:34;100724.66;;;9.64;92.16
70370;BME280;57790;51.356;-2.906;2022-11-25T02:29:35;100728.53;;;9.43;92.31
70370;BME280;57790;51.356;-2.906;2022-11-25T02:32:42;100726.22;;;9.74;93.17
70370;BME280;57790;51.356;-2.906;2022-11-25T02:35:57;100746.16;;;9.35;92.96
70370;BME280;57790;51.356;-2.906;2022-11-25T02:38:59;100751.19;;;9.46;93.57
70370;BME280;57790;51.356;-2.906;2022-11-25T02:42:00;100755.28;;;9.66;92.86
70370;BME280;57790;51.356;-2.906;2022-11-25T02:45:02;100769.41;;;9.75;93.08
70370;BME280;57790;51.356;-2.906;2022-11-25T02:48:02;100769.09;;;9.52;93.18
70370;BME280;57790;51.356;-2.906;2022-11-25T02:51:04;100770.75;;;9.53;93.61
70370;BME280;57790;51.356;-2.906;2022-11-25T02:54:06;100774.66;;;9.41;93.68
70370;BME280;57790;51.356;-2.906;2022-11-25T02:57:06;100792.34;;;9.40;93.85
70370;BME280;57790;51.356;-2.906;2022-11-25T03:00:07;100789.69;;;9.40;93.08
70370;BME280;57790;51.356;-2.906;2022-11-25T03:03:08;100796.50;;;9.43;93.34
70370;BME280;57790;51.356;-2.906;2022-11-25T03:06:08;100801.09;;;9.23;93.79
70370;BME280;57790;51.356;-2.906;2022-11-25T03:09:08;100798.38;;;9.33;93.57
70370;BME280;57790;51.356;-2.906;2022-11-25T03:12:09;100841.66;;;9.67;94.68
70370;BME280;57790;51.356;-2.906;2022-11-25T03:15:18;100836.19;;;9.43;95.17
70370;BME280;57790;51.356;-2.906;2022-11-25T03:18:19;100848.88;;;9.57;96.62
70370;BME280;57790;51.356;-2.906;2022-11-25T03:21:19;100854.63;;;9.35;97.58
70370;BME280;57790;51.356;-2.906;2022-11-25T03:24:20;100873.81;;;9.54;97.98
70370;BME280;57790;51.356;-2.906;2022-11-25T03:27:20;100874.63;;;9.73;96.78
70370;BME280;57790;51.356;-2.906;2022-11-25T03:30:23;100877.03;;;9.66;94.24
70370;BME280;57790;51.356;-2.906;2022-11-25T03:33:23;100880.06;;;9.53;93.12
70370;BME280;57790;51.356;-2.906;2022-11-25T03:36:24;100874.06;;;9.43;92.61
70370;BME280;57790;51.356;-2.906;2022-11-25T03:39:24;100873.13;;;9.70;89.90
70370;BME280;57790;51.356;-2.906;2022-11-25T03:42:25;100887.44;;;9.60;90.08
70370;BME280;57790;51.356;-2.906;2022-11-25T03:45:25;100890.13;;;9.68;90.28
70370;BME280;57790;51.356;-2.906;2022-11-25T03:48:26;100895.13;;;9.53;91.15
70370;BME280;57790;51.356;-2.906;2022-11-25T03:51:26;100904.28;;;9.59;91.51
70370;BME280;57790;51.356;-2.906;2022-11-25T03:54:26;100915.78;;;9.85;92.23
70370;BME280;57790;51.356;-2.906;2022-11-25T03:57:27;100929.28;;;9.82;92.70
70370;BME280;57790;51.356;-2.906;2022-11-25T04:00:27;100931.13;;;9.64;94.55
70370;BME280;57790;51.356;-2.906;2022-11-25T04:03:28;100941.78;;;9.90;93.77
70370;BME280;57790;51.356;-2.906;2022-11-25T04:06:32;100946.91;;;9.91;93.53
70370;BME280;57790;51.356;-2.906;2022-11-25T04:09:32;100959.94;;;9.84;92.86
70370;BME280;57790;51.356;-2.906;2022-11-25T04:12:32;100976.88;;;9.92;92.44
70370;BME280;57790;51.356;-2.906;2022-11-25T04:15:49;100981.88;;;9.95;93.64
70370;BME280;57790;51.356;-2.906;2022-11-25T04:18:50;100993.91;;;10.07;94.01
70370;BME280;57790;51.356;-2.906;2022-11-25T04:21:50;100996.09;;;9.94;94.42
70370;BME280;57790;51.356;-2.906;2022-11-25T04:24:51;101001.53;;;9.92;95.48
70370;BME280;57790;51.356;-2.906;2022-11-25T04:27:51;101021.22;;;9.90;95.20
70370;BME280;57790;51.356;-2.906;2022-11-25T04:30:51;101028.50;;;9.88;95.75
70370;BME280;57790;51.356;-2.906;2022-11-25T04:33:52;101017.06;;;9.87;95.62
70370;BME280;57790;51.356;-2.906;2022-11-25T04:36:52;101021.28;;;9.98;94.36
70370;BME280;57790;51.356;-2.906;2022-11-25T04:39:53;101027.03;;;9.93;94.69
70370;BME280;57790;51.356;-2.906;2022-11-25T04:42:53;101034.59;;;9.70;94.89
70370;BME280;57790;51.356;-2.906;2022-11-25T04:45:53;101022.66;;;10.02;94.57
70370;BME280;57790;51.356;-2.906;2022-11-25T04:48:54;101042.63;;;9.78;92.25
70370;BME280;57790;51.356;-2.906;2022-11-25T04:51:54;101059.13;;;9.90;92.18
70370;BME280;57790;51.356;-2.906;2022-11-25T04:54:54;101078.03;;;9.77;93.15
70370;BME280;57790;51.356;-2.906;2022-11-25T04:57:55;101093.22;;;9.75;93.58
70370;BME280;57790;51.356;-2.906;2022-11-25T05:00:56;101099.38;;;9.94;92.20
70370;BME280;57790;51.356;-2.906;2022-11-25T05:03:56;101113.63;;;10.10;93.24
70370;BME280;57790;51.356;-2.906;2022-11-25T05:06:56;101102.84;;;9.94;91.38
70370;BME280;57790;51.356;-2.906;2022-11-25T05:09:57;101112.91;;;9.36;93.13
70370;BME280;57790;51.356;-2.906;2022-11-25T05:12:57;101112.03;;;9.08;94.33
70370;BME280;57790;51.356;-2.906;2022-11-25T05:15:58;101118.97;;;9.09;94.97
70370;BME280;57790;51.356;-2.906;2022-11-25T05:18:59;101126.38;;;9.05;95.30
70370;BME280;57790;51.356;-2.906;2022-11-25T05:21:59;101130.84;;;9.05;95.47
70370;BME280;57790;51.356;-2.906;2022-11-25T05:25:00;101131.38;;;9.08;96.23
70370;BME280;57790;51.356;-2.906;2022-11-25T05:28:01;101130.84;;;9.05;96.63
70370;BME280;57790;51.356;-2.906;2022-11-25T05:31:01;101132.25;;;8.89;97.15
70370;BME280;57790;51.356;-2.906;2022-11-25T05:34:02;101143.53;;;8.91;97.08
70370;BME280;57790;51.356;-2.906;2022-11-25T05:37:03;101149.78;;;8.90;96.83
70370;BME280;57790;51.356;-2.906;2022-11-25T05:40:04;101147.00;;;8.92;96.80
70370;BME280;57790;51.356;-2.906;2022-11-25T05:43:05;101156.63;;;8.83;96.72
70370;BME280;57790;51.356;-2.906;2022-11-25T05:46:06;101163.44;;;8.86;96.62
70370;BME280;57790;51.356;-2.906;2022-11-25T05:49:06;101173.31;;;8.84;96.37
70370;BME280;57790;51.356;-2.906;2022-11-25T05:52:07;101184.88;;;8.83;96.88
70370;BME280;57790;51.356;-2.906;2022-11-25T05:55:07;101192.94;;;8.91;96.26
70370;BME280;57790;51.356;-2.906;2022-11-25T05:58:08;101199.44;;;8.97;95.90
70370;BME280;57790;51.356;-2.906;2022-11-25T06:01:11;101205.72;;;8.67;97.74
70370;BME280;57790;51.356;-2.906;2022-11-25T06:04:13;101219.47;;;8.51;97.80
70370;BME280;57790;51.356;-2.906;2022-11-25T06:07:14;101217.13;;;8.57;98.46
70370;BME280;57790;51.356;-2.906;2022-11-25T06:10:16;101224.38;;;8.15;98.23
70370;BME280;57790;51.356;-2.906;2022-11-25T06:13:18;101227.00;;;8.05;100.00
70370;BME280;57790;51.356;-2.906;2022-11-25T06:16:20;101236.66;;;7.95;100.00
70370;BME280;57790;51.356;-2.906;2022-11-25T06:19:21;101229.63;;;8.05;100.00
70370;BME280;57790;51.356;-2.906;2022-11-25T06:22:21;101247.00;;;7.98;100.00
70370;BME280;57790;51.356;-2.906;2022-11-25T06:25:21;101245.31;;;7.97;100.00
70370;BME280;57790;51.356;-2.906;2022-11-25T06:28:22;101250.25;;;8.21;100.00
70370;BME280;57790;51.356;-2.906;2022-11-25T06:31:24;101262.91;;;8.18;100.00
70370;BME280;57790;51.356;-2.906;2022-11-25T06:34:25;101278.81;;;8.37;100.00
70370;BME280;57790;51.356;-2.906;2022-11-25T06:37:25;101290.81;;;8.41;100.00
70370;BME280;57790;51.356;-2.906;2022-11-25T06:40:26;101287.00;;;8.84;99.16
70370;BME280;57790;51.356;-2.906;2022-11-25T06:43:26;101296.72;;;8.74;98.29
70370;BME280;57790;51.356;-2.906;2022-11-25T06:46:27;101308.19;;;8.53;98.68
70370;BME280;57790;51.356;-2.906;2022-11-25T06:49:27;101310.47;;;8.58;98.99
70370;BME280;57790;51.356;-2.906;2022-11-25T06:52:31;101347.41;;;8.18;99.41
70370;BME280;57790;51.356;-2.906;2022-11-25T06:55:31;101325.66;;;8.75;98.10
70370;BME280;57790;51.356;-2.906;2022-11-25T06:58:35;101338.03;;;8.75;98.54
70370;BME280;57790;51.356;-2.906;2022-11-25T07:01:35;101357.19;;;8.67;98.57
70370;BME280;57790;51.356;-2.906;2022-11-25T07:04:36;101358.81;;;8.89;97.95
70370;BME280;57790;51.356;-2.906;2022-11-25T07:07:36;101368.41;;;8.90;99.03
70370;BME280;57790;51.356;-2.906;2022-11-25T07:10:37;101387.19;;;8.87;99.10
70370;BME280;57790;51.356;-2.906;2022-11-25T07:13:37;101401.00;;;9.00;99.18
70370;BME280;57790;51.356;-2.906;2022-11-25T07:16:39;101398.53;;;9.28;98.64
70370;BME280;57790;51.356;-2.906;2022-11-25T07:19:41;101385.13;;;9.10;98.40
70370;BME280;57790;51.356;-2.906;2022-11-25T07:22:41;101388.50;;;9.21;96.52
70370;BME280;57790;51.356;-2.906;2022-11-25T07:25:41;101411.03;;;9.06;96.64
70370;BME280;57790;51.356;-2.906;2022-11-25T07:28:42;101414.09;;;9.02;96.55
70370;BME280;57790;51.356;-2.906;2022-11-25T07:31:44;101417.28;;;9.05;96.69
70370;BME280;57790;51.356;-2.906;2022-11-25T07:34:44;101433.72;;;9.09;95.91
70370;BME280;57790;51.356;-2.906;2022-11-25T07:37:45;101442.19;;;9.03;96.25
70370;BME280;57790;51.356;-2.906;2022-11-25T07:40:45;101460.84;;;9.11;96.32
70370;BME280;57790;51.356;-2.906;2022-11-25T07:43:47;101472.06;;;8.84;96.91
70370;BME280;57790;51.356;-2.906;2022-11-25T07:46:49;101487.94;;;8.84;97.42
70370;BME280;57790;51.356;-2.906;2022-11-25T07:49:50;101502.25;;;9.21;96.86
70370;BME280;57790;51.356;-2.906;2022-11-25T07:52:50;101508.78;;;10.35;95.36
70370;BME280;57790;51.356;-2.906;2022-11-25T07:55:51;101532.47;;;9.88;94.39
70370;BME280;57790;51.356;-2.906;2022-11-25T07:58:51;101521.03;;;9.78;94.84
70370;BME280;57790;51.356;-2.906;2022-11-25T08:01:53;101510.44;;;10.46;93.95
70370;BME280;57790;51.356;-2.906;2022-11-25T08:04:53;101515.69;;;9.49;94.44
70370;BME280;57790;51.356;-2.906;2022-11-25T08:07:54;101528.41;;;9.15;96.03
70370;BME280;57790;51.356;-2.906;2022-11-25T08:10:55;101555.25;;;9.10;96.76
70370;BME280;57790;51.356;-2.906;2022-11-25T08:13:56;101565.94;;;8.99;96.08
70370;BME280;57790;51.356;-2.906;2022-11-25T08:16:57;101567.88;;;9.28;96.42
70370;BME280;57790;51.356;-2.906;2022-11-25T08:19:57;101572.56;;;8.93;96.40
70370;BME280;57790;51.356;-2.906;2022-11-25T08:22:58;101582.28;;;8.83;96.38
70370;BME280;57790;51.356;-2.906;2022-11-25T08:26:03;101585.03;;;8.82;97.63
70370;BME280;57790;51.356;-2.906;2022-11-25T08:29:06;101597.28;;;8.83;98.63
70370;BME280;57790;51.356;-2.906;2022-11-25T08:32:08;101591.38;;;8.70;99.28
70370;BME280;57790;51.356;-2.906;2022-11-25T08:35:09;101601.81;;;8.71;99.27
70370;BME280;57790;51.356;-2.906;2022-11-25T08:38:10;101618.13;;;8.76;100.00
70370;BME280;57790;51.356;-2.906;2022-11-25T08:41:20;101609.22;;;9.29;99.58
70370;BME280;57790;51.356;-2.906;2022-11-25T08:44:20;101618.97;;;8.98;100.00
70370;BME280;57790;51.356;-2.906;2022-11-25T08:47:24;101611.19;;;9.36;100.00
70370;BME280;57790;51.356;-2.906;2022-11-25T08:50:24;101611.28;;;9.25;100.00
70370;BME280;57790;51.356;-2.906;2022-11-25T08:53:25;101609.63;;;9.64;100.00
70370;BME280;57790;51.356;-2.906;2022-11-25T08:56:26;101615.03;;;9.22;99.66
70370;BME280;57790;51.356;-2.906;2022-11-25T08:59:26;101614.81;;;9.35;100.00
70370;BME280;57790;51.356;-2.906;2022-11-25T09:02:27;101619.22;;;9.25;100.00
70370;BME280;57790;51.356;-2.906;2022-11-25T09:05:27;101632.22;;;9.38;100.00
70370;BME280;57790;51.356;-2.906;2022-11-25T09:08:35;101623.69;;;9.65;99.24
70370;BME280;57790;51.356;-2.906;2022-11-25T09:11:36;101627.81;;;9.88;98.19
70370;BME280;57790;51.356;-2.906;2022-11-25T09:14:37;101636.75;;;9.87;97.75
70370;BME280;57790;51.356;-2.906;2022-11-25T09:17:39;101649.69;;;9.90;97.11
70370;BME280;57790;51.356;-2.906;2022-11-25T09:20:42;101657.50;;;10.41;96.06
70370;BME280;57790;51.356;-2.906;2022-11-25T09:23:43;101648.00;;;10.58;94.14
70370;BME280;57790;51.356;-2.906;2022-11-25T09:26:46;101651.06;;;10.73;94.68
70370;BME280;57790;51.356;-2.906;2022-11-25T09:29:48;101662.50;;;10.35;94.11
70370;BME280;57790;51.356;-2.906;2022-11-25T09:32:50;101663.00;;;10.19;94.37
70370;BME280;57790;51.356;-2.906;2022-11-25T09:35:51;101670.41;;;10.16;95.03
70370;BME280;57790;51.356;-2.906;2022-11-25T09:38:51;101680.06;;;10.36;94.38
70370;BME280;57790;51.356;-2.906;2022-11-25T09:45:36;101684.53;;;11.03;93.60
70370;BME280;57790;51.356;-2.906;2022-11-25T09:52:18;101702.91;;;11.80;93.62
70370;BME280;57790;51.356;-2.906;2022-11-25T09:55:24;101700.13;;;11.25;92.34
70370;BME280;57790;51.356;-2.906;2022-11-25T10:01:30;101708.59;;;12.58;87.79
70370;BME280;57790;51.356;-2.906;2022-11-25T10:04:57;101714.03;;;13.28;85.63
70370;BME280;57790;51.356;-2.906;2022-11-25T10:08:26;101712.53;;;13.51;83.49
70370;BME280;57790;51.356;-2.906;2022-11-25T10:11:59;101726.13;;;13.40;82.54
70370;BME280;57790;51.356;-2.906;2022-11-25T10:15:09;101733.41;;;13.90;83.92
70370;BME280;57790;51.356;-2.906;2022-11-25T10:18:24;101746.63;;;14.08;82.45
70370;BME280;57790;51.356;-2.906;2022-11-25T10:21:26;101750.75;;;13.94;80.93
70370;BME280;57790;51.356;-2.906;2022-11-25T10:24:27;101746.66;;;14.58;79.68
70370;BME280;57790;51.356;-2.906;2022-11-25T10:31:19;101765.56;;;15.22;76.37
70370;BME280;57790;51.356;-2.906;2022-11-25T10:34:46;101766.03;;;15.33;74.30
70370;BME280;57790;51.356;-2.906;2022-11-25T10:37:51;101768.50;;;15.92;73.54
70370;BME280;57790;51.356;-2.906;2022-11-25T10:40:54;101776.22;;;16.26;72.77
70370;BME280;57790;51.356;-2.906;2022-11-25T10:43:55;101790.94;;;15.50;71.59
70370;BME280;57790;51.356;-2.906;2022-11-25T10:47:32;101802.81;;;15.39;72.51
70370;BME280;57790;51.356;-2.906;2022-11-25T10:50:38;101816.81;;;15.41;73.10
70370;BME280;57790;51.356;-2.906;2022-11-25T10:54:08;101824.81;;;15.58;72.22
70370;BME280;57790;51.356;-2.906;2022-11-25T10:57:19;101823.59;;;16.09;71.09
70370;BME280;57790;51.356;-2.906;2022-11-25T11:00:25;101832.47;;;16.49;72.73
70370;BME280;57790;51.356;-2.906;2022-11-25T11:03:27;101829.50;;;17.06;67.87
70370;BME280;57790;51.356;-2.906;2022-11-25T11:06:32;101837.38;;;15.57;72.64
70370;BME280;57790;51.356;-2.906;2022-11-25T11:09:37;101821.81;;;16.41;70.46
70370;BME280;57790;51.356;-2.906;2022-11-25T11:13:05;101825.16;;;16.34;68.51
70370;BME280;57790;51.356;-2.906;2022-11-25T11:19:22;101827.28;;;16.47;64.98
70370;BME280;57790;51.356;-2.906;2022-11-25T11:22:24;101834.78;;;16.91;63.76
70370;BME280;57790;51.356;-2.906;2022-11-25T11:25:31;101842.16;;;17.80;62.73
70370;BME280;57790;51.356;-2.906;2022-11-25T11:31:36;101831.91;;;17.23;63.08
70370;BME280;57790;51.356;-2.906;2022-11-25T11:35:00;101849.75;;;16.77;62.72
70370;BME280;57790;51.356;-2.906;2022-11-25T11:38:33;101851.22;;;17.57;62.32
70370;BME280;57790;51.356;-2.906;2022-11-25T11:41:59;101849.50;;;16.64;61.86
70370;BME280;57790;51.356;-2.906;2022-11-25T11:45:52;101868.25;;;16.00;63.83
70370;BME280;57790;51.356;-2.906;2022-11-25T12:05:26;101910.34;;;13.18;79.06
70370;BME280;57790;51.356;-2.906;2022-11-25T12:09:19;101914.81;;;13.17;82.79
70370;BME280;57790;51.356;-2.906;2022-11-25T12:12:04;101916.56;;;13.97;83.57
70370;BME280;57790;51.356;-2.906;2022-11-25T12:15:46;101908.28;;;14.61;79.30
70370;BME280;57790;51.356;-2.906;2022-11-25T12:18:54;101917.72;;;14.81;79.50
70370;BME280;57790;51.356;-2.906;2022-11-25T12:22:21;101915.81;;;14.39;79.34
70370;BME280;57790;51.356;-2.906;2022-11-25T12:25:30;101928.72;;;14.18;77.27
70370;BME280;57790;51.356;-2.906;2022-11-25T12:28:42;101924.59;;;14.49;79.93
70370;BME280;57790;51.356;-2.906;2022-11-25T12:31:50;101943.75;;;14.87;78.19
70370;BME280;57790;51.356;-2.906;2022-11-25T12:35:06;101953.34;;;14.38;77.65
70370;BME280;57790;51.356;-2.906;2022-11-25T12:41:42;101940.41;;;13.81;78.56
70370;BME280;57790;51.356;-2.906;2022-11-25T12:47:47;101935.06;;;13.99;76.82
70370;BME280;57790;51.356;-2.906;2022-11-25T12:58:06;101949.09;;;13.83;78.27
70370;BME280;57790;51.356;-2.906;2022-11-25T13:15:43;101965.78;;;13.32;79.28
70370;BME280;57790;51.356;-2.906;2022-11-25T13:18:45;101971.22;;;13.30;78.20
70370;BME280;57790;51.356;-2.906;2022-11-25T13:22:05;101975.13;;;13.36;80.49
70370;BME280;57790;51.356;-2.906;2022-11-25T13:25:26;101983.69;;;13.75;79.72
70370;BME280;57790;51.356;-2.906;2022-11-25T13:28:30;101982.59;;;13.86;80.48
70370;BME280;57790;51.356;-2.906;2022-11-25T13:31:53;101986.44;;;13.20;79.05
70370;BME280;57790;51.356;-2.906;2022-11-25T13:38:57;101997.63;;;13.14;80.20
70370;BME280;57790;51.356;-2.906;2022-11-25T13:42:24;101992.16;;;13.16;80.71
70370;BME280;57790;51.356;-2.906;2022-11-25T13:45:37;101987.75;;;13.34;80.34
70370;BME280;57790;51.356;-2.906;2022-11-25T13:48:42;101997.97;;;13.01;80.24
70370;BME280;57790;51.356;-2.906;2022-11-25T13:51:48;102004.31;;;13.28;79.29
70370;BME280;57790;51.356;-2.906;2022-11-25T13:54:51;102001.88;;;13.07;79.95
70370;BME280;57790;51.356;-2.906;2022-11-25T13:58:12;102010.63;;;13.27;80.05
70370;BME280;57790;51.356;-2.906;2022-11-25T14:01:23;102006.47;;;13.24;80.86
70370;BME280;57790;51.356;-2.906;2022-11-25T14:04:57;102008.19;;;13.06;80.01
70370;BME280;57790;51.356;-2.906;2022-11-25T14:08:20;102006.22;;;13.08;80.84
70370;BME280;57790;51.356;-2.906;2022-11-25T14:15:31;101999.41;;;13.33;78.92
70370;BME280;57790;51.356;-2.906;2022-11-25T14:22:21;102004.03;;;13.03;78.56
70370;BME280;57790;51.356;-2.906;2022-11-25T14:25:26;102007.53;;;13.04;79.23
70370;BME280;57790;51.356;-2.906;2022-11-25T14:31:40;102013.00;;;13.02;78.76
70370;BME280;57790;51.356;-2.906;2022-11-25T14:34:49;102014.56;;;12.95;78.36
70370;BME280;57790;51.356;-2.906;2022-11-25T14:38:01;102020.72;;;12.96;79.20
70370;BME280;57790;51.356;-2.906;2022-11-25T14:41:10;102029.38;;;12.98;77.65
70370;BME280;57790;51.356;-2.906;2022-11-25T14:44:19;102037.44;;;13.25;78.14
70370;BME280;57790;51.356;-2.906;2022-11-25T14:47:23;102041.81;;;13.07;78.34
70370;BME280;57790;51.356;-2.906;2022-11-25T14:50:24;102035.41;;;13.00;78.14
70370;BME280;57790;51.356;-2.906;2022-11-25T14:53:25;102054.13;;;12.71;80.24
70370;BME280;57790;51.356;-2.906;2022-11-25T14:56:31;102069.84;;;13.01;79.09
70370;BME280;57790;51.356;-2.906;2022-11-25T14:59:33;102061.00;;;12.73;80.92
70370;BME280;57790;51.356;-2.906;2022-11-25T15:02:39;102068.25;;;12.71;82.00
70370;BME280;57790;51.356;-2.906;2022-11-25T15:05:40;102069.09;;;12.72;82.08
70370;BME280;57790;51.356;-2.906;2022-11-25T15:08:45;102070.22;;;12.69;81.48
70370;BME280;57790;51.356;-2.906;2022-11-25T15:11:46;102073.22;;;12.47;83.48
70370;BME280;57790;51.356;-2.906;2022-11-25T15:14:51;102079.69;;;12.44;81.53
70370;BME280;57790;51.356;-2.906;2022-11-25T15:17:53;102091.56;;;12.40;81.23
70370;BME280;57790;51.356;-2.906;2022-11-25T15:20:58;102102.41;;;12.86;81.04
70370;BME280;57790;51.356;-2.906;2022-11-25T15:23:59;102105.69;;;12.41;81.65
70370;BME280;57790;51.356;-2.906;2022-11-25T15:27:01;102108.06;;;12.44;81.39
70370;BME280;57790;51.356;-2.906;2022-11-25T15:30:19;102106.69;;;12.20;81.88
70370;BME280;57790;51.356;-2.906;2022-11-25T15:33:23;102119.00;;;12.21;82.61
70370;BME280;57790;51.356;-2.906;2022-11-25T15:36:24;102119.41;;;12.17;81.69
70370;BME280;57790;51.356;-2.906;2022-11-25T15:39:25;102127.22;;;11.99;83.39
70370;BME280;57790;51.356;-2.906;2022-11-25T15:42:26;102132.81;;;11.96;83.54
70370;BME280;57790;51.356;-2.906;2022-11-25T15:45:44;102141.97;;;11.73;83.94
70370;BME280;57790;51.356;-2.906;2022-11-25T15:48:47;102148.50;;;11.59;85.47
70370;BME280;57790;51.356;-2.906;2022-11-25T15:51:52;102154.31;;;11.53;85.03
70370;BME280;57790;51.356;-2.906;2022-11-25T15:58:31;102171.38;;;11.50;86.02
70370;BME280;57790;51.356;-2.906;2022-11-25T16:01:37;102174.16;;;11.28;86.31
70370;BME280;57790;51.356;-2.906;2022-11-25T16:04:37;102179.41;;;11.39;87.15
70370;BME280;57790;51.356;-2.906;2022-11-25T16:10:56;102195.94;;;11.22;88.56
70370;BME280;57790;51.356;-2.906;2022-11-25T16:14:34;102205.59;;;11.23;88.75
70370;BME280;57790;51.356;-2.906;2022-11-25T16:17:36;102205.16;;;11.18;88.79
70370;BME280;57790;51.356;-2.906;2022-11-25T16:20:37;102210.31;;;10.98;90.41
70370;BME280;57790;51.356;-2.906;2022-11-25T16:23:40;102224.84;;;11.15;90.36
70370;BME280;57790;51.356;-2.906;2022-11-25T16:26:54;102228.13;;;11.08;91.56
70370;BME280;57790;51.356;-2.906;2022-11-25T16:30:06;102233.16;;;11.11;91.53
70370;BME280;57790;51.356;-2.906;2022-11-25T16:33:10;102227.59;;;11.14;90.57
70370;BME280;57790;51.356;-2.906;2022-11-25T16:36:10;102228.66;;;11.01;90.69
70370;BME280;57790;51.356;-2.906;2022-11-25T16:39:11;102233.75;;;10.93;90.94
70370;BME280;57790;51.356;-2.906;2022-11-25T16:42:18;102238.38;;;10.80;90.19
70370;BME280;57790;51.356;-2.906;2022-11-25T16:45:22;102242.31;;;10.65;90.29
70370;BME280;57790;51.356;-2.906;2022-11-25T16:48:23;102241.28;;;10.45;90.77
70370;BME280;57790;51.356;-2.906;2022-11-25T16:51:23;102251.75;;;10.58;90.71
70370;BME280;57790;51.356;-2.906;2022-11-25T16:54:25;102255.16;;;10.37;91.47
70370;BME280;57790;51.356;-2.906;2022-11-25T16:57:25;102252.47;;;10.49;91.24
70370;BME280;57790;51.356;-2.906;2022-11-25T17:00:25;102256.13;;;10.36;91.36
70370;BME280;57790;51.356;-2.906;2022-11-25T17:03:26;102263.69;;;10.41;92.11
70370;BME280;57790;51.356;-2.906;2022-11-25T17:06:28;102266.84;;;10.35;92.31
70370;BME280;57790;51.356;-2.906;2022-11-25T17:09:29;102280.44;;;10.19;92.84
70370;BME280;57790;51.356;-2.906;2022-11-25T17:12:33;102286.03;;;10.27;93.13
70370;BME280;57790;51.356;-2.906;2022-11-25T17:15:35;102289.41;;;10.29;93.58
70370;BME280;57790;51.356;-2.906;2022-11-25T17:18:37;102294.78;;;10.17;93.87
70370;BME280;57790;51.356;-2.906;2022-11-25T17:21:37;102296.72;;;10.03;94.61
70370;BME280;57790;51.356;-2.906;2022-11-25T17:24:37;102300.22;;;10.04;94.68
70370;BME280;57790;51.356;-2.906;2022-11-25T17:27:38;102307.19;;;10.05;95.05